Flight Track Log - Related Links

Times and Time Zones

All times are in EDT time to prevent confusion due to time zone crossing. See the LYM1647 flight status page for this flight to view local times or setup timezone preferences in your user account.

Time Position Orientation Groundspeed Altitude Reporting Facility
EDT Latitude Longitude Course Direction KTS MPH feet Rate Location/Type
Tue 08:11:55 AM 39.8667 -104.5667 108° East 186 214 8,200  Level Denver TRACON
Tue 08:13:05 AM 39.8297 -104.4994 126° Southeast 209 241 9,000 415 Climbing Denver Center
Tue 08:14:05 AM 39.7922 -104.4225 122° Southeast 252 290 9,100 893 Climbing Denver Center
Tue 08:15:06 AM 39.7425 -104.3572 135° Southeast 250 288 10,800 1,240 Climbing Denver Center
Tue 08:16:06 AM 39.7014 -104.2908 129° Southeast 240 276 11,600 744 Climbing Denver Center
Tue 08:17:00 AM 39.6997 -104.2153 108° East  Level FlightAware Approximate
Tue 08:17:07 AM 39.6775 -104.1997 109° East 249 287 12,300  Level Denver Center
Tue 08:18:08 AM 39.6606 -104.1125 104° East 251 289 13,100 793 Climbing Denver Center
Tue 08:19:08 AM 39.6422 -104.0253 105° East 250 288 13,900 793 Climbing Denver Center
Tue 08:20:09 AM 39.6214 -103.9386 107° East 249 287 14,700 984 Climbing Denver Center
Tue 08:21:10 AM 39.5992 -103.8556 109° East 243 280 15,900 1,131 Climbing Denver Center
Tue 08:22:11 AM 39.5761 -103.7806 112° Southeast 226 260 17,000 793 Climbing Denver Center
Tue 08:23:11 AM 39.5497 -103.7136 117° Southeast 219 252 17,500 645 Climbing Denver Center
Tue 08:24:12 AM 39.5322 -103.6303 105° East 237 273 18,300 689 Climbing Denver Center
Tue 08:25:13 AM 39.5064 -103.5525 113° Southeast 233 268 18,900 344 Climbing Denver Center
Tue 08:26:14 AM 39.4900 -103.4678 104° East 247 284 19,000 99 Climbing Denver Center
Tue 08:27:14 AM 39.4636 -103.3797 111° Southeast 260 299 19,100 50 Climbing Denver Center
Tue 08:28:15 AM 39.4358 -103.2878 111° Southeast 269 310 19,100  Level Denver Center
Tue 08:29:16 AM 39.4064 -103.1958 112° Southeast 275 316 19,100  Level Denver Center
Tue 08:30:17 AM 39.3811 -103.1008 109° East 281 323 19,100  Level Denver Center
Tue 08:31:18 AM 39.3661 -103.0014 101° East 278 320 19,100 -49 Level Denver Center
Tue 08:32:19 AM 39.3344 -102.9072 113° Southeast 284 327 19,000  Descending Denver Center
Tue 08:33:20 AM 39.3072 -102.8111 110° East 282 325 19,100  Climbing Denver Center
Tue 08:34:20 AM 39.2817 -102.7078 108° East 286 329 19,000 -50 Descending Denver Center
Tue 08:35:21 AM 39.2567 -102.5975 106° East 287 330 19,000  Level Denver Center
Tue 08:36:22 AM 39.2347 -102.5036 107° East 287 330 19,000  Level Denver Center
Tue 08:37:23 AM 39.2097 -102.4114 109° East 285 328 19,000 49 Level Denver Center
Tue 08:38:24 AM 39.1847 -102.2997 106° East 287 330 19,100 49 Climbing Denver Center
Tue 08:39:25 AM 39.1583 -102.2047 110° East 294 338 19,100  Level Denver Center
Tue 08:40:26 AM 39.1356 -102.1114 107° East 285 328 19,100  Level Denver Center
Tue 08:41:27 AM 39.1075 -102.0033 108° East 286 329 19,100  Level Denver Center
Tue 08:42:28 AM 39.0606 -101.9289 129° Southeast 297 342 19,100 -49 Level Denver Center
Tue 08:43:29 AM 39.0036 -101.8689 141° Southeast 281 323 19,000  Descending Denver Center
Tue 08:44:30 AM 38.9353 -101.7961 140° Southeast 285 328 19,100  Climbing Denver Center
Tue 08:45:31 AM 38.8797 -101.7328 138° Southeast 281 323 19,000 -49 Descending Denver Center
Tue 08:46:32 AM 38.8100 -101.6617 142° Southeast 285 328 19,000 -197 Level Denver Center
Tue 08:47:33 AM 38.7533 -101.5978 139° Southeast 282 325 18,600 -878 Descending Denver Center
Tue 08:48:35 AM 38.6919 -101.5289 139° Southeast 300 345 17,200 -1,220 Descending Denver Center
Tue 08:49:36 AM 38.6139 -101.4464 140° Southeast 323 372 16,100 -1,033 Descending Denver Center
Tue 08:50:37 AM 38.5506 -101.3739 138° Southeast 320 368 15,100 -738 Descending Denver Center
Tue 08:51:38 AM 38.4856 -101.3058 141° Southeast 316 364 14,600 -738 Descending Denver Center
Tue 08:52:39 AM 38.4114 -101.2272 140° Southeast 312 359 13,600 -934 Descending Denver Center
Tue 08:53:40 AM 38.3453 -101.1619 142° Southeast 313 360 12,700 -1,033 Descending Denver Center
Tue 08:54:41 AM 38.2806 -101.0922 140° Southeast 315 362 11,500 -1,328 Descending Denver Center
Tue 08:55:42 AM 38.2069 -101.0092 138° Southeast 316 364 10,000 -1,721 Descending Denver Center
Tue 08:56:43 AM 38.1456 -100.9456 141° Southeast 308 354 8,000 -1,672 Descending Denver Center
Tue 08:57:44 AM 38.0900 -100.8831 138° Southeast 291 335 6,600 -1,212 Descending Denver Center
Tue 08:58:22 AM 38.0639 -100.8431 130° Southeast 260 299 6,000 -1,200 Descending Kansas City Center
Tue 08:59:24 AM 38.0164 -100.7761 132° Southeast 236 272 4,600 -1,016 Descending Kansas City Center
Tue 09:00:26 AM 37.9825 -100.7286 132° Southeast 210 242 3,900 -677 Descending Kansas City Center

Login

Don't have an account? Register now (free) for customized features, flight alerts, and more!